sensor_id;sensor_type;location;lat;lon;timestamp;temperature;humidity
12746;DHT22;6437;53.686;10.030;2023-04-01T00:01:59;12.00;99.90
12746;DHT22;6437;53.686;10.030;2023-04-01T00:04:02;11.90;99.90
12746;DHT22;6437;53.686;10.030;2023-04-01T00:06:05;11.90;99.90
12746;DHT22;6437;53.686;10.030;2023-04-01T00:08:07;11.90;99.90
12746;DHT22;6437;53.686;10.030;2023-04-01T00:10:11;11.90;99.90
12746;DHT22;6437;53.686;10.030;2023-04-01T00:12:13;11.90;99.90
12746;DHT22;6437;53.686;10.030;2023-04-01T00:14:15;11.90;99.90
12746;DHT22;6437;53.686;10.030;2023-04-01T00:16:16;11.90;99.90
12746;DHT22;6437;53.686;10.030;2023-04-01T00:18:18;11.90;99.90
12746;DHT22;6437;53.686;10.030;2023-04-01T00:20:22;11.90;99.90
12746;DHT22;6437;53.686;10.030;2023-04-01T00:22:24;11.90;99.90
12746;DHT22;6437;53.686;10.030;2023-04-01T00:24:26;11.90;99.90
12746;DHT22;6437;53.686;10.030;2023-04-01T00:26:28;11.90;99.90
12746;DHT22;6437;53.686;10.030;2023-04-01T00:28:30;11.90;99.90
12746;DHT22;6437;53.686;10.030;2023-04-01T00:30:32;11.90;99.90
12746;DHT22;6437;53.686;10.030;2023-04-01T00:32:34;11.80;99.90
12746;DHT22;6437;53.686;10.030;2023-04-01T00:34:36;11.80;99.90
12746;DHT22;6437;53.686;10.030;2023-04-01T00:36:39;11.50;99.90
12746;DHT22;6437;53.686;10.030;2023-04-01T00:38:41;11.80;99.90
12746;DHT22;6437;53.686;10.030;2023-04-01T00:40:45;11.90;99.90
12746;DHT22;6437;53.686;10.030;2023-04-01T00:42:47;11.80;99.90
12746;DHT22;6437;53.686;10.030;2023-04-01T00:44:51;11.90;99.90
12746;DHT22;6437;53.686;10.030;2023-04-01T00:46:53;11.90;99.90
12746;DHT22;6437;53.686;10.030;2023-04-01T00:48:55;11.90;99.90
12746;DHT22;6437;53.686;10.030;2023-04-01T00:51:00;11.90;99.90
12746;DHT22;6437;53.686;10.030;2023-04-01T00:53:05;11.90;99.90
12746;DHT22;6437;53.686;10.030;2023-04-01T00:55:09;11.90;99.90
12746;DHT22;6437;53.686;10.030;2023-04-01T00:57:14;11.90;99.90
12746;DHT22;6437;53.686;10.030;2023-04-01T00:59:21;11.90;99.90
12746;DHT22;6437;53.686;10.030;2023-04-01T01:01:24;11.90;99.90
12746;DHT22;6437;53.686;10.030;2023-04-01T01:03:26;11.80;99.90
12746;DHT22;6437;53.686;10.030;2023-04-01T01:05:36;11.90;99.90
12746;DHT22;6437;53.686;10.030;2023-04-01T01:07:44;11.90;99.90
12746;DHT22;6437;53.686;10.030;2023-04-01T01:09:54;11.90;99.90
12746;DHT22;6437;53.686;10.030;2023-04-01T01:12:05;11.90;99.90
12746;DHT22;6437;53.686;10.030;2023-04-01T01:14:14;11.90;99.90
12746;DHT22;6437;53.686;10.030;2023-04-01T01:16:24;11.90;99.90
12746;DHT22;6437;53.686;10.030;2023-04-01T01:18:33;11.80;99.90
12746;DHT22;6437;53.686;10.030;2023-04-01T01:26:18;11.90;99.90
12746;DHT22;6437;53.686;10.030;2023-04-01T01:28:34;11.80;99.90
12746;DHT22;6437;53.686;10.030;2023-04-01T01:30:47;11.80;99.90
12746;DHT22;6437;53.686;10.030;2023-04-01T01:33:01;11.80;99.90
12746;DHT22;6437;53.686;10.030;2023-04-01T01:35:21;11.80;99.90
12746;DHT22;6437;53.686;10.030;2023-04-01T01:37:26;11.70;99.90
12746;DHT22;6437;53.686;10.030;2023-04-01T01:39:31;11.70;99.90
12746;DHT22;6437;53.686;10.030;2023-04-01T01:41:36;11.70;99.90
12746;DHT22;6437;53.686;10.030;2023-04-01T01:43:41;11.80;99.90
12746;DHT22;6437;53.686;10.030;2023-04-01T01:45:46;11.80;99.90
12746;DHT22;6437;53.686;10.030;2023-04-01T01:47:50;11.80;99.90
12746;DHT22;6437;53.686;10.030;2023-04-01T01:49:53;11.80;99.90
12746;DHT22;6437;53.686;10.030;2023-04-01T01:51:57;11.80;99.90
12746;DHT22;6437;53.686;10.030;2023-04-01T01:53:59;11.80;99.90
12746;DHT22;6437;53.686;10.030;2023-04-01T01:56:01;11.80;99.90
12746;DHT22;6437;53.686;10.030;2023-04-01T01:58:07;11.80;99.90
12746;DHT22;6437;53.686;10.030;2023-04-01T02:00:12;11.60;99.90
12746;DHT22;6437;53.686;10.030;2023-04-01T02:02:15;11.80;99.90
12746;DHT22;6437;53.686;10.030;2023-04-01T02:04:19;11.80;99.90
12746;DHT22;6437;53.686;10.030;2023-04-01T02:06:22;11.80;99.90
12746;DHT22;6437;53.686;10.030;2023-04-01T02:08:28;12.40;99.90
12746;DHT22;6437;53.686;10.030;2023-04-01T02:10:35;11.80;99.90
12746;DHT22;6437;53.686;10.030;2023-04-01T02:12:38;11.80;99.90
12746;DHT22;6437;53.686;10.030;2023-04-01T02:14:44;11.70;99.90
12746;DHT22;6437;53.686;10.030;2023-04-01T02:16:49;11.80;99.90
12746;DHT22;6437;53.686;10.030;2023-04-01T02:18:54;11.80;99.90
12746;DHT22;6437;53.686;10.030;2023-04-01T02:20:57;11.80;99.90
12746;DHT22;6437;53.686;10.030;2023-04-01T02:23:00;11.80;99.90
12746;DHT22;6437;53.686;10.030;2023-04-01T02:25:07;11.80;99.90
12746;DHT22;6437;53.686;10.030;2023-04-01T02:27:09;11.80;99.90
12746;DHT22;6437;53.686;10.030;2023-04-01T02:29:12;11.80;99.90
12746;DHT22;6437;53.686;10.030;2023-04-01T02:31:14;11.80;99.90
12746;DHT22;6437;53.686;10.030;2023-04-01T02:33:16;11.70;99.90
12746;DHT22;6437;53.686;10.030;2023-04-01T02:35:19;11.70;99.90
12746;DHT22;6437;53.686;10.030;2023-04-01T02:37:21;11.60;99.90
12746;DHT22;6437;53.686;10.030;2023-04-01T02:39:23;11.60;99.90
12746;DHT22;6437;53.686;10.030;2023-04-01T02:41:27;11.70;99.90
12746;DHT22;6437;53.686;10.030;2023-04-01T02:43:29;11.70;99.90
12746;DHT22;6437;53.686;10.030;2023-04-01T02:45:31;11.70;99.90
12746;DHT22;6437;53.686;10.030;2023-04-01T02:47:33;11.70;99.90
12746;DHT22;6437;53.686;10.030;2023-04-01T02:49:34;11.70;99.90
12746;DHT22;6437;53.686;10.030;2023-04-01T02:51:36;11.70;99.90
12746;DHT22;6437;53.686;10.030;2023-04-01T02:53:38;11.70;99.90
12746;DHT22;6437;53.686;10.030;2023-04-01T02:55:40;11.70;99.90
12746;DHT22;6437;53.686;10.030;2023-04-01T02:57:43;11.70;99.90
12746;DHT22;6437;53.686;10.030;2023-04-01T02:59:45;11.70;99.90
12746;DHT22;6437;53.686;10.030;2023-04-01T03:01:46;11.70;99.90
12746;DHT22;6437;53.686;10.030;2023-04-01T03:03:48;11.70;99.90
12746;DHT22;6437;53.686;10.030;2023-04-01T03:05:50;11.70;99.90
12746;DHT22;6437;53.686;10.030;2023-04-01T03:07:52;11.70;99.90
12746;DHT22;6437;53.686;10.030;2023-04-01T03:09:53;11.70;99.90
12746;DHT22;6437;53.686;10.030;2023-04-01T03:11:55;11.60;99.90
12746;DHT22;6437;53.686;10.030;2023-04-01T03:13:58;11.40;99.90
12746;DHT22;6437;53.686;10.030;2023-04-01T03:16:00;11.70;99.90
12746;DHT22;6437;53.686;10.030;2023-04-01T03:18:02;11.70;99.90
12746;DHT22;6437;53.686;10.030;2023-04-01T03:20:05;11.60;99.90
12746;DHT22;6437;53.686;10.030;2023-04-01T03:22:10;11.60;99.90
12746;DHT22;6437;53.686;10.030;2023-04-01T03:24:12;11.60;99.90
12746;DHT22;6437;53.686;10.030;2023-04-01T03:26:14;11.70;99.90
12746;DHT22;6437;53.686;10.030;2023-04-01T03:28:16;11.70;99.90
12746;DHT22;6437;53.686;10.030;2023-04-01T03:30:19;11.70;99.90
12746;DHT22;6437;53.686;10.030;2023-04-01T03:32:21;11.70;99.90
12746;DHT22;6437;53.686;10.030;2023-04-01T03:34:22;11.40;99.90
12746;DHT22;6437;53.686;10.030;2023-04-01T03:36:24;11.60;99.90
12746;DHT22;6437;53.686;10.030;2023-04-01T03:38:26;11.70;99.90
12746;DHT22;6437;53.686;10.030;2023-04-01T03:40:28;11.60;99.90
12746;DHT22;6437;53.686;10.030;2023-04-01T03:42:30;11.60;99.90
12746;DHT22;6437;53.686;10.030;2023-04-01T03:44:32;11.60;99.90
12746;DHT22;6437;53.686;10.030;2023-04-01T03:46:36;11.60;99.90
12746;DHT22;6437;53.686;10.030;2023-04-01T03:48:37;11.60;99.90
12746;DHT22;6437;53.686;10.030;2023-04-01T03:50:39;11.60;99.90
12746;DHT22;6437;53.686;10.030;2023-04-01T03:52:41;11.60;99.90
12746;DHT22;6437;53.686;10.030;2023-04-01T03:54:43;11.60;99.90
12746;DHT22;6437;53.686;10.030;2023-04-01T03:56:44;11.70;99.90
12746;DHT22;6437;53.686;10.030;2023-04-01T03:58:46;11.60;99.90
12746;DHT22;6437;53.686;10.030;2023-04-01T04:00:48;11.60;99.90
12746;DHT22;6437;53.686;10.030;2023-04-01T04:02:51;11.60;99.90
12746;DHT22;6437;53.686;10.030;2023-04-01T04:04:53;11.60;99.90
12746;DHT22;6437;53.686;10.030;2023-04-01T04:06:55;11.60;99.90
12746;DHT22;6437;53.686;10.030;2023-04-01T04:08:56;11.60;99.90
12746;DHT22;6437;53.686;10.030;2023-04-01T04:10:58;11.60;99.90
12746;DHT22;6437;53.686;10.030;2023-04-01T04:13:00;11.50;99.90
12746;DHT22;6437;53.686;10.030;2023-04-01T04:15:02;11.50;99.90
12746;DHT22;6437;53.686;10.030;2023-04-01T04:17:04;11.60;99.90
12746;DHT22;6437;53.686;10.030;2023-04-01T04:19:07;11.60;99.90
12746;DHT22;6437;53.686;10.030;2023-04-01T04:21:12;11.60;99.90
12746;DHT22;6437;53.686;10.030;2023-04-01T04:23:14;11.60;99.90
12746;DHT22;6437;53.686;10.030;2023-04-01T04:25:16;11.60;99.90
12746;DHT22;6437;53.686;10.030;2023-04-01T04:27:17;11.60;99.90
12746;DHT22;6437;53.686;10.030;2023-04-01T04:29:19;11.60;99.90
12746;DHT22;6437;53.686;10.030;2023-04-01T04:31:21;11.80;99.90
12746;DHT22;6437;53.686;10.030;2023-04-01T04:33:24;11.50;99.90
12746;DHT22;6437;53.686;10.030;2023-04-01T04:35:28;11.50;99.90
12746;DHT22;6437;53.686;10.030;2023-04-01T04:37:29;11.40;99.90
12746;DHT22;6437;53.686;10.030;2023-04-01T04:39:31;11.40;99.90
12746;DHT22;6437;53.686;10.030;2023-04-01T04:41:33;11.40;99.90
12746;DHT22;6437;53.686;10.030;2023-04-01T04:43:35;11.40;99.90
12746;DHT22;6437;53.686;10.030;2023-04-01T04:45:36;11.40;99.90
12746;DHT22;6437;53.686;10.030;2023-04-01T04:47:38;11.30;99.90
12746;DHT22;6437;53.686;10.030;2023-04-01T04:49:40;11.30;99.90
12746;DHT22;6437;53.686;10.030;2023-04-01T04:51:43;11.30;99.90
12746;DHT22;6437;53.686;10.030;2023-04-01T04:53:45;11.30;99.90
12746;DHT22;6437;53.686;10.030;2023-04-01T04:55:48;11.20;99.90
12746;DHT22;6437;53.686;10.030;2023-04-01T04:57:49;11.20;99.90
12746;DHT22;6437;53.686;10.030;2023-04-01T04:59:51;11.10;99.90
12746;DHT22;6437;53.686;10.030;2023-04-01T05:01:53;11.10;99.90
12746;DHT22;6437;53.686;10.030;2023-04-01T05:03:55;11.00;99.90
12746;DHT22;6437;53.686;10.030;2023-04-01T05:05:56;11.10;99.90
12746;DHT22;6437;53.686;10.030;2023-04-01T05:08:00;11.00;99.90
12746;DHT22;6437;53.686;10.030;2023-04-01T05:10:01;11.00;99.90
12746;DHT22;6437;53.686;10.030;2023-04-01T05:12:03;10.90;99.90
12746;DHT22;6437;53.686;10.030;2023-04-01T05:14:05;10.90;99.90
12746;DHT22;6437;53.686;10.030;2023-04-01T05:16:09;10.80;99.90
12746;DHT22;6437;53.686;10.030;2023-04-01T05:18:10;10.80;99.90
12746;DHT22;6437;53.686;10.030;2023-04-01T05:20:13;10.70;99.90
12746;DHT22;6437;53.686;10.030;2023-04-01T05:22:15;10.70;99.90
12746;DHT22;6437;53.686;10.030;2023-04-01T05:24:18;10.70;99.90
12746;DHT22;6437;53.686;10.030;2023-04-01T05:26:20;10.70;99.90
12746;DHT22;6437;53.686;10.030;2023-04-01T05:28:21;10.70;99.90
12746;DHT22;6437;53.686;10.030;2023-04-01T05:30:23;10.70;99.90
12746;DHT22;6437;53.686;10.030;2023-04-01T05:32:25;10.70;99.90
12746;DHT22;6437;53.686;10.030;2023-04-01T05:34:26;10.60;99.90
12746;DHT22;6437;53.686;10.030;2023-04-01T05:36:28;10.60;99.90
12746;DHT22;6437;53.686;10.030;2023-04-01T05:38:30;10.60;99.90
12746;DHT22;6437;53.686;10.030;2023-04-01T05:40:33;10.50;99.90
12746;DHT22;6437;53.686;10.030;2023-04-01T05:42:35;10.50;99.90
12746;DHT22;6437;53.686;10.030;2023-04-01T05:44:37;10.50;99.90
12746;DHT22;6437;53.686;10.030;2023-04-01T05:46:38;10.50;99.90
12746;DHT22;6437;53.686;10.030;2023-04-01T05:48:40;10.40;99.90
12746;DHT22;6437;53.686;10.030;2023-04-01T05:50:42;10.40;99.90
12746;DHT22;6437;53.686;10.030;2023-04-01T05:52:44;10.40;99.90
12746;DHT22;6437;53.686;10.030;2023-04-01T05:54:46;10.40;99.90
12746;DHT22;6437;53.686;10.030;2023-04-01T05:56:49;10.00;99.90
12746;DHT22;6437;53.686;10.030;2023-04-01T05:58:52;10.30;99.90
12746;DHT22;6437;53.686;10.030;2023-04-01T06:01:00;10.30;99.90
12746;DHT22;6437;53.686;10.030;2023-04-01T06:03:02;10.30;99.90
12746;DHT22;6437;53.686;10.030;2023-04-01T06:05:13;10.30;99.90
12746;DHT22;6437;53.686;10.030;2023-04-01T06:07:18;10.30;99.90
12746;DHT22;6437;53.686;10.030;2023-04-01T06:09:26;10.20;99.90
12746;DHT22;6437;53.686;10.030;2023-04-01T06:11:37;10.20;99.90
12746;DHT22;6437;53.686;10.030;2023-04-01T06:13:58;10.10;99.90
12746;DHT22;6437;53.686;10.030;2023-04-01T06:16:12;10.10;99.90
12746;DHT22;6437;53.686;10.030;2023-04-01T06:18:45;10.40;99.90
12746;DHT22;6437;53.686;10.030;2023-04-01T06:20:55;10.10;99.90
12746;DHT22;6437;53.686;10.030;2023-04-01T06:23:19;10.10;99.90
12746;DHT22;6437;53.686;10.030;2023-04-01T06:28:04;10.00;99.90
12746;DHT22;6437;53.686;10.030;2023-04-01T06:30:25;10.00;99.90
12746;DHT22;6437;53.686;10.030;2023-04-01T06:35:30;10.00;99.90
12746;DHT22;6437;53.686;10.030;2023-04-01T06:37:50;9.90;99.90
12746;DHT22;6437;53.686;10.030;2023-04-01T06:40:09;9.90;99.90
12746;DHT22;6437;53.686;10.030;2023-04-01T06:42:22;9.80;99.90
12746;DHT22;6437;53.686;10.030;2023-04-01T06:44:29;9.80;99.90
12746;DHT22;6437;53.686;10.030;2023-04-01T06:46:43;9.80;99.90
12746;DHT22;6437;53.686;10.030;2023-04-01T06:48:59;9.70;99.90
12746;DHT22;6437;53.686;10.030;2023-04-01T06:51:11;9.70;99.90
12746;DHT22;6437;53.686;10.030;2023-04-01T06:53:19;9.70;99.90
12746;DHT22;6437;53.686;10.030;2023-04-01T06:55:27;9.70;99.90
12746;DHT22;6437;53.686;10.030;2023-04-01T06:57:36;9.70;99.90
12746;DHT22;6437;53.686;10.030;2023-04-01T06:59:41;9.70;99.90
12746;DHT22;6437;53.686;10.030;2023-04-01T07:01:46;9.70;99.90
12746;DHT22;6437;53.686;10.030;2023-04-01T07:03:53;9.70;99.90
12746;DHT22;6437;53.686;10.030;2023-04-01T07:05:58;9.70;99.90
12746;DHT22;6437;53.686;10.030;2023-04-01T07:08:04;9.70;99.90
12746;DHT22;6437;53.686;10.030;2023-04-01T07:10:13;9.60;99.90
12746;DHT22;6437;53.686;10.030;2023-04-01T07:12:19;9.70;99.90
12746;DHT22;6437;53.686;10.030;2023-04-01T07:14:25;9.60;99.90
12746;DHT22;6437;53.686;10.030;2023-04-01T07:16:32;9.60;99.90
12746;DHT22;6437;53.686;10.030;2023-04-01T07:18:41;9.60;99.90
12746;DHT22;6437;53.686;10.030;2023-04-01T07:20:44;9.60;99.90
12746;DHT22;6437;53.686;10.030;2023-04-01T07:22:49;9.60;99.90
12746;DHT22;6437;53.686;10.030;2023-04-01T07:24:54;9.60;99.90
12746;DHT22;6437;53.686;10.030;2023-04-01T07:26:59;9.60;99.90
12746;DHT22;6437;53.686;10.030;2023-04-01T07:29:01;9.60;99.90
12746;DHT22;6437;53.686;10.030;2023-04-01T07:31:10;9.60;99.90
12746;DHT22;6437;53.686;10.030;2023-04-01T07:33:19;9.50;99.90
12746;DHT22;6437;53.686;10.030;2023-04-01T07:35:26;9.50;99.90
12746;DHT22;6437;53.686;10.030;2023-04-01T07:37:31;9.50;99.90
12746;DHT22;6437;53.686;10.030;2023-04-01T07:39:41;9.50;99.90
12746;DHT22;6437;53.686;10.030;2023-04-01T07:41:52;9.50;99.90
12746;DHT22;6437;53.686;10.030;2023-04-01T07:44:04;9.50;99.90
12746;DHT22;6437;53.686;10.030;2023-04-01T07:46:16;9.50;99.90
12746;DHT22;6437;53.686;10.030;2023-04-01T07:48:25;9.50;99.90
12746;DHT22;6437;53.686;10.030;2023-04-01T07:50:32;9.50;99.90
12746;DHT22;6437;53.686;10.030;2023-04-01T07:52:38;9.50;99.90
12746;DHT22;6437;53.686;10.030;2023-04-01T07:54:49;9.50;99.90
12746;DHT22;6437;53.686;10.030;2023-04-01T07:56:59;9.40;99.90
12746;DHT22;6437;53.686;10.030;2023-04-01T07:59:05;9.40;99.90
12746;DHT22;6437;53.686;10.030;2023-04-01T08:01:15;9.50;99.90
12746;DHT22;6437;53.686;10.030;2023-04-01T08:03:36;9.40;99.90
12746;DHT22;6437;53.686;10.030;2023-04-01T08:05:49;9.40;99.90
12746;DHT22;6437;53.686;10.030;2023-04-01T08:08:01;9.40;99.90
12746;DHT22;6437;53.686;10.030;2023-04-01T08:10:11;9.40;99.90
12746;DHT22;6437;53.686;10.030;2023-04-01T08:12:22;9.40;99.90
12746;DHT22;6437;53.686;10.030;2023-04-01T08:14:33;9.40;99.90
12746;DHT22;6437;53.686;10.030;2023-04-01T08:16:45;9.40;99.90
12746;DHT22;6437;53.686;10.030;2023-04-01T08:18:54;9.40;99.90
12746;DHT22;6437;53.686;10.030;2023-04-01T08:21:02;9.40;99.90
12746;DHT22;6437;53.686;10.030;2023-04-01T08:23:12;9.30;99.90
12746;DHT22;6437;53.686;10.030;2023-04-01T08:25:19;9.40;99.90
12746;DHT22;6437;53.686;10.030;2023-04-01T08:27:27;9.40;99.90
12746;DHT22;6437;53.686;10.030;2023-04-01T08:29:36;9.30;99.90
12746;DHT22;6437;53.686;10.030;2023-04-01T08:31:44;9.30;99.90
12746;DHT22;6437;53.686;10.030;2023-04-01T08:33:49;9.30;99.90
12746;DHT22;6437;53.686;10.030;2023-04-01T08:35:57;9.30;99.90
12746;DHT22;6437;53.686;10.030;2023-04-01T08:38:09;9.30;99.90
12746;DHT22;6437;53.686;10.030;2023-04-01T08:40:35;9.30;99.90
12746;DHT22;6437;53.686;10.030;2023-04-01T08:42:54;9.40;99.90
12746;DHT22;6437;53.686;10.030;2023-04-01T08:45:14;9.30;99.90
12746;DHT22;6437;53.686;10.030;2023-04-01T08:47:30;9.30;99.90
12746;DHT22;6437;53.686;10.030;2023-04-01T08:49:56;9.30;99.90
12746;DHT22;6437;53.686;10.030;2023-04-01T08:52:22;9.30;99.90
12746;DHT22;6437;53.686;10.030;2023-04-01T08:57:03;9.40;99.90
12746;DHT22;6437;53.686;10.030;2023-04-01T08:59:27;9.30;99.90
12746;DHT22;6437;53.686;10.030;2023-04-01T09:01:44;9.30;99.90
12746;DHT22;6437;53.686;10.030;2023-04-01T09:04:13;9.40;99.90
12746;DHT22;6437;53.686;10.030;2023-04-01T09:06:26;9.40;99.90
12746;DHT22;6437;53.686;10.030;2023-04-01T09:08:38;9.40;99.90
12746;DHT22;6437;53.686;10.030;2023-04-01T09:11:10;9.40;99.90
12746;DHT22;6437;53.686;10.030;2023-04-01T09:13:24;9.40;99.90
12746;DHT22;6437;53.686;10.030;2023-04-01T09:15:54;9.40;99.90
12746;DHT22;6437;53.686;10.030;2023-04-01T09:18:24;9.40;99.90
12746;DHT22;6437;53.686;10.030;2023-04-01T09:20:50;9.40;99.90
12746;DHT22;6437;53.686;10.030;2023-04-01T09:25:45;9.40;99.90
12746;DHT22;6437;53.686;10.030;2023-04-01T09:27:56;9.40;99.90
12746;DHT22;6437;53.686;10.030;2023-04-01T09:33:17;9.40;99.90
12746;DHT22;6437;53.686;10.030;2023-04-01T09:35:38;9.40;99.90
12746;DHT22;6437;53.686;10.030;2023-04-01T09:38:04;9.40;99.90
12746;DHT22;6437;53.686;10.030;2023-04-01T09:40:16;9.40;99.90
12746;DHT22;6437;53.686;10.030;2023-04-01T09:42:42;9.40;99.90
12746;DHT22;6437;53.686;10.030;2023-04-01T09:44:50;9.40;99.90
12746;DHT22;6437;53.686;10.030;2023-04-01T09:47:05;9.40;99.90
12746;DHT22;6437;53.686;10.030;2023-04-01T09:49:30;9.40;99.90
12746;DHT22;6437;53.686;10.030;2023-04-01T09:51:40;9.40;99.90
12746;DHT22;6437;53.686;10.030;2023-04-01T09:53:55;9.40;99.90
12746;DHT22;6437;53.686;10.030;2023-04-01T09:56:23;9.40;99.90
12746;DHT22;6437;53.686;10.030;2023-04-01T09:58:50;9.20;99.90
12746;DHT22;6437;53.686;10.030;2023-04-01T10:06:51;9.40;99.90
12746;DHT22;6437;53.686;10.030;2023-04-01T10:09:22;9.70;99.90
12746;DHT22;6437;53.686;10.030;2023-04-01T10:24:35;9.40;99.90
12746;DHT22;6437;53.686;10.030;2023-04-01T10:27:04;9.40;99.90
12746;DHT22;6437;53.686;10.030;2023-04-01T10:29:31;9.50;99.90
12746;DHT22;6437;53.686;10.030;2023-04-01T10:34:56;9.50;99.90
12746;DHT22;6437;53.686;10.030;2023-04-01T10:37:14;9.50;99.90
12746;DHT22;6437;53.686;10.030;2023-04-01T10:39:33;9.40;99.90
12746;DHT22;6437;53.686;10.030;2023-04-01T10:41:53;9.50;99.90
12746;DHT22;6437;53.686;10.030;2023-04-01T10:46:49;9.50;99.90
12746;DHT22;6437;53.686;10.030;2023-04-01T10:49:22;9.50;99.90
12746;DHT22;6437;53.686;10.030;2023-04-01T10:51:43;9.50;99.90
12746;DHT22;6437;53.686;10.030;2023-04-01T10:54:18;9.50;99.90
12746;DHT22;6437;53.686;10.030;2023-04-01T10:56:41;9.50;99.90
12746;DHT22;6437;53.686;10.030;2023-04-01T10:59:15;9.50;99.90
12746;DHT22;6437;53.686;10.030;2023-04-01T11:01:45;9.50;99.90
12746;DHT22;6437;53.686;10.030;2023-04-01T11:04:26;9.50;99.90
12746;DHT22;6437;53.686;10.030;2023-04-01T11:12:29;9.50;99.90
12746;DHT22;6437;53.686;10.030;2023-04-01T11:17:42;9.40;99.90
12746;DHT22;6437;53.686;10.030;2023-04-01T11:20:09;9.40;99.90
12746;DHT22;6437;53.686;10.030;2023-04-01T11:22:34;9.40;99.90
12746;DHT22;6437;53.686;10.030;2023-04-01T11:24:59;9.40;99.90
12746;DHT22;6437;53.686;10.030;2023-04-01T11:27:17;9.40;99.90
12746;DHT22;6437;53.686;10.030;2023-04-01T11:29:43;9.40;99.90
12746;DHT22;6437;53.686;10.030;2023-04-01T11:31:57;9.40;99.90
12746;DHT22;6437;53.686;10.030;2023-04-01T11:34:05;9.40;99.90
12746;DHT22;6437;53.686;10.030;2023-04-01T11:36:20;9.40;99.90
12746;DHT22;6437;53.686;10.030;2023-04-01T11:38:38;9.40;99.90
12746;DHT22;6437;53.686;10.030;2023-04-01T11:40:54;9.40;99.90
12746;DHT22;6437;53.686;10.030;2023-04-01T11:43:04;9.40;99.90
12746;DHT22;6437;53.686;10.030;2023-04-01T11:45:24;9.40;99.90
12746;DHT22;6437;53.686;10.030;2023-04-01T11:47:56;9.30;99.90
12746;DHT22;6437;53.686;10.030;2023-04-01T11:50:21;9.30;99.90
12746;DHT22;6437;53.686;10.030;2023-04-01T11:52:44;9.40;99.90
12746;DHT22;6437;53.686;10.030;2023-04-01T11:55:15;9.20;99.90
12746;DHT22;6437;53.686;10.030;2023-04-01T11:57:54;9.40;99.90
12746;DHT22;6437;53.686;10.030;2023-04-01T12:00:21;9.30;99.90
12746;DHT22;6437;53.686;10.030;2023-04-01T12:02:29;9.30;99.90
12746;DHT22;6437;53.686;10.030;2023-04-01T12:04:54;9.30;99.90
12746;DHT22;6437;53.686;10.030;2023-04-01T12:07:02;9.30;99.90
12746;DHT22;6437;53.686;10.030;2023-04-01T12:09:12;9.30;99.90
12746;DHT22;6437;53.686;10.030;2023-04-01T12:11:24;9.30;99.90
12746;DHT22;6437;53.686;10.030;2023-04-01T12:13:37;9.30;99.90
12746;DHT22;6437;53.686;10.030;2023-04-01T12:15:54;9.40;99.90
12746;DHT22;6437;53.686;10.030;2023-04-01T12:18:05;9.30;99.90
12746;DHT22;6437;53.686;10.030;2023-04-01T12:20:30;9.30;99.90
12746;DHT22;6437;53.686;10.030;2023-04-01T12:22:44;9.30;99.90
12746;DHT22;6437;53.686;10.030;2023-04-01T12:24:48;9.20;99.90
12746;DHT22;6437;53.686;10.030;2023-04-01T12:27:02;9.20;99.90
12746;DHT22;6437;53.686;10.030;2023-04-01T12:29:37;9.30;99.90
12746;DHT22;6437;53.686;10.030;2023-04-01T12:31:50;9.30;99.90
12746;DHT22;6437;53.686;10.030;2023-04-01T12:36:41;9.20;99.90
12746;DHT22;6437;53.686;10.030;2023-04-01T12:38:51;9.20;99.90
12746;DHT22;6437;53.686;10.030;2023-04-01T12:41:06;9.20;99.90
12746;DHT22;6437;53.686;10.030;2023-04-01T12:46:03;9.20;99.90
12746;DHT22;6437;53.686;10.030;2023-04-01T12:48:33;9.20;99.90
12746;DHT22;6437;53.686;10.030;2023-04-01T12:51:13;9.20;99.90
12746;DHT22;6437;53.686;10.030;2023-04-01T12:53:43;9.20;99.90
12746;DHT22;6437;53.686;10.030;2023-04-01T12:55:48;9.20;99.90
12746;DHT22;6437;53.686;10.030;2023-04-01T13:00:42;9.20;99.90
12746;DHT22;6437;53.686;10.030;2023-04-01T13:03:01;9.10;99.90
12746;DHT22;6437;53.686;10.030;2023-04-01T13:05:20;9.10;99.90
12746;DHT22;6437;53.686;10.030;2023-04-01T13:07:42;9.10;99.90
12746;DHT22;6437;53.686;10.030;2023-04-01T13:09:55;9.20;99.90
12746;DHT22;6437;53.686;10.030;2023-04-01T13:12:14;9.10;99.90
12746;DHT22;6437;53.686;10.030;2023-04-01T13:14:40;9.10;99.90
12746;DHT22;6437;53.686;10.030;2023-04-01T13:16:48;9.10;99.90
12746;DHT22;6437;53.686;10.030;2023-04-01T13:18:59;9.10;99.90
12746;DHT22;6437;53.686;10.030;2023-04-01T13:21:08;9.10;99.90
12746;DHT22;6437;53.686;10.030;2023-04-01T13:23:27;9.10;99.90
12746;DHT22;6437;53.686;10.030;2023-04-01T13:25:36;9.10;99.90
12746;DHT22;6437;53.686;10.030;2023-04-01T13:27:43;9.10;99.90
12746;DHT22;6437;53.686;10.030;2023-04-01T13:29:57;9.10;99.90
12746;DHT22;6437;53.686;10.030;2023-04-01T13:32:17;9.10;99.90
12746;DHT22;6437;53.686;10.030;2023-04-01T13:34:32;9.10;99.90
12746;DHT22;6437;53.686;10.030;2023-04-01T13:36:44;9.00;99.90
12746;DHT22;6437;53.686;10.030;2023-04-01T13:39:11;9.10;99.90
12746;DHT22;6437;53.686;10.030;2023-04-01T13:41:23;9.00;99.90
12746;DHT22;6437;53.686;10.030;2023-04-01T13:43:35;9.00;99.90
12746;DHT22;6437;53.686;10.030;2023-04-01T13:45:49;9.00;99.90
12746;DHT22;6437;53.686;10.030;2023-04-01T13:48:17;9.00;99.90
12746;DHT22;6437;53.686;10.030;2023-04-01T13:50:37;9.00;99.90
12746;DHT22;6437;53.686;10.030;2023-04-01T13:53:09;9.10;99.90
12746;DHT22;6437;53.686;10.030;2023-04-01T13:55:23;9.00;99.90
12746;DHT22;6437;53.686;10.030;2023-04-01T13:57:43;8.90;99.90
12746;DHT22;6437;53.686;10.030;2023-04-01T14:00:03;8.90;99.90
12746;DHT22;6437;53.686;10.030;2023-04-01T14:04:50;8.90;99.90
12746;DHT22;6437;53.686;10.030;2023-04-01T14:07:04;8.90;99.90
12746;DHT22;6437;53.686;10.030;2023-04-01T14:09:34;8.80;99.90
12746;DHT22;6437;53.686;10.030;2023-04-01T14:11:47;8.90;99.90
12746;DHT22;6437;53.686;10.030;2023-04-01T14:14:01;8.90;99.90
12746;DHT22;6437;53.686;10.030;2023-04-01T14:16:27;8.90;99.90
12746;DHT22;6437;53.686;10.030;2023-04-01T14:18:42;8.90;99.90
12746;DHT22;6437;53.686;10.030;2023-04-01T14:20:52;8.90;99.90
12746;DHT22;6437;53.686;10.030;2023-04-01T14:23:20;8.90;99.90
12746;DHT22;6437;53.686;10.030;2023-04-01T14:25:54;8.80;99.90
12746;DHT22;6437;53.686;10.030;2023-04-01T14:28:12;8.90;99.90
12746;DHT22;6437;53.686;10.030;2023-04-01T14:30:31;8.80;99.90
12746;DHT22;6437;53.686;10.030;2023-04-01T14:32:42;8.80;99.90
12746;DHT22;6437;53.686;10.030;2023-04-01T14:34:58;8.80;99.90
12746;DHT22;6437;53.686;10.030;2023-04-01T14:37:19;8.80;99.90
12746;DHT22;6437;53.686;10.030;2023-04-01T14:39:38;8.80;99.90
12746;DHT22;6437;53.686;10.030;2023-04-01T14:41:48;8.80;99.90
12746;DHT22;6437;53.686;10.030;2023-04-01T14:44:05;8.80;99.90
12746;DHT22;6437;53.686;10.030;2023-04-01T14:46:41;8.80;99.90
12746;DHT22;6437;53.686;10.030;2023-04-01T14:48:53;8.80;99.90
12746;DHT22;6437;53.686;10.030;2023-04-01T14:51:03;8.70;99.90
12746;DHT22;6437;53.686;10.030;2023-04-01T14:53:13;8.70;99.90